Time;durP1;ratioP1;P1;durP2;ratioP2;P2;SDS_P1;SDS_P2;PMS_P1;PMS_P2;Temp;Humidity;BMP_temperature;BMP_pressure;BME280_temperature;BME280_humidity;BME280_pressure;Samples;Min_cycle;Max_cycle;Signal;HPM_P1;HPM_P2
2021/05/09 00:00:47;;;;;;;4.63;3.20;;;;;;;;;;1484755;40;20352;-58
2021/05/09 00:01:48;;;;;;;5.40;3.45;;;;;;;;;;1484765;40;20063;-59
2021/05/09 00:02:49;;;;;;;6.45;3.50;;;;;;;;;;1484947;40;20029;-60
2021/05/09 00:03:50;;;;;;;5.55;3.33;;;;;;;;;;1485003;40;20025;-58
2021/05/09 00:04:51;;;;;;;6.05;3.30;;;;;;;;;;1484778;40;20035;-58
2021/05/09 00:05:52;;;;;;;4.80;3.33;;;;;;;;;;1484917;40;20029;-58
2021/05/09 00:06:55;;;;;;;4.82;3.50;;;;;;;;;;1484910;40;20036;-58
2021/05/09 00:07:57;;;;;;;5.35;3.45;;;;;;;;;;1484782;40;20033;-58
2021/05/09 00:08:57;;;;;;;7.15;3.92;;;;;;;;;;1484960;40;20025;-58
2021/05/09 00:09:59;;;;;;;3.53;3.00;;;;;;;;;;1485108;40;20028;-59
2021/05/09 00:10:59;;;;;;;4.38;3.30;;;;;;;;;;1484952;40;20025;-58
2021/05/09 00:12:01;;;;;;;6.22;3.97;;;;;;;;;;1485008;40;20287;-58
2021/05/09 00:13:02;;;;;;;5.10;3.33;;;;;;;;;;1484765;40;20032;-60
2021/05/09 00:14:04;;;;;;;4.00;2.80;;;;;;;;;;1484869;40;20406;-58
2021/05/09 00:15:07;;;;;;;5.00;3.60;;;;;;;;;;1484910;40;20114;-58
2021/05/09 00:16:10;;;;;;;7.38;3.40;;;;;;;;;;1484727;40;20410;-58
2021/05/09 00:17:11;;;;;;;6.35;3.33;;;;;;;;;;1484826;40;20132;-58
2021/05/09 00:18:12;;;;;;;5.60;3.60;;;;;;;;;;1484685;40;20114;-58
2021/05/09 00:19:13;;;;;;;6.22;3.22;;;;;;;;;;1484807;40;20036;-58
2021/05/09 00:20:14;;;;;;;5.13;3.60;;;;;;;;;;1484619;40;20403;-58
2021/05/09 00:21:15;;;;;;;5.35;3.08;;;;;;;;;;1484919;40;20052;-58
2021/05/09 00:22:17;;;;;;;4.95;3.17;;;;;;;;;;1484851;40;20091;-58
2021/05/09 00:23:18;;;;;;;8.02;3.38;;;;;;;;;;1484703;40;20029;-58
2021/05/09 00:24:19;;;;;;;5.82;3.25;;;;;;;;;;1484702;40;20029;-58
2021/05/09 00:25:20;;;;;;;4.07;3.10;;;;;;;;;;1484928;40;20029;-58
2021/05/09 00:26:21;;;;;;;5.63;3.70;;;;;;;;;;1484752;40;20304;-57
2021/05/09 00:27:22;;;;;;;4.72;3.25;;;;;;;;;;1484795;40;20277;-57
2021/05/09 00:28:23;;;;;;;5.57;3.40;;;;;;;;;;1484895;40;20087;-58
2021/05/09 00:29:24;;;;;;;6.40;3.90;;;;;;;;;;1484889;40;20100;-58
2021/05/09 00:30:26;;;;;;;4.30;3.03;;;;;;;;;;1484854;40;20060;-58
2021/05/09 00:31:27;;;;;;;4.80;3.40;;;;;;;;;;1484712;40;20036;-58
2021/05/09 00:32:28;;;;;;;4.57;3.50;;;;;;;;;;1484883;40;20114;-58
2021/05/09 00:33:35;;;;;;;6.35;3.78;;;;;;;;;;1484739;40;20039;-58
2021/05/09 00:34:47;;;;;;;5.32;3.60;;;;;;;;;;1484918;40;20051;-58
2021/05/09 00:35:48;;;;;;;5.68;4.07;;;;;;;;;;1484880;40;20036;-58
2021/05/09 00:36:49;;;;;;;4.95;3.10;;;;;;;;;;1484796;40;20081;-58
2021/05/09 00:37:50;;;;;;;5.85;3.70;;;;;;;;;;1484818;40;20029;-57
2021/05/09 00:38:51;;;;;;;5.05;3.53;;;;;;;;;;1484915;40;20312;-58
2021/05/09 00:39:52;;;;;;;4.18;3.20;;;;;;;;;;1484965;40;20036;-58
2021/05/09 00:40:54;;;;;;;5.85;3.72;;;;;;;;;;1484615;40;20347;-58
2021/05/09 00:42:00;;;;;;;6.15;3.50;;;;;;;;;;1484648;40;20035;-59
2021/05/09 00:43:01;;;;;;;5.07;3.35;;;;;;;;;;1484878;40;20041;-58
2021/05/09 00:44:03;;;;;;;4.78;3.63;;;;;;;;;;1484876;40;20025;-58
2021/05/09 00:45:06;;;;;;;7.38;3.33;;;;;;;;;;1484638;40;20303;-58
2021/05/09 00:46:08;;;;;;;6.00;4.18;;;;;;;;;;1484826;40;20125;-58
2021/05/09 00:47:13;;;;;;;5.03;3.60;;;;;;;;;;1484927;40;20028;-58
2021/05/09 00:48:16;;;;;;;5.50;3.63;;;;;;;;;;1484676;40;20040;-58
2021/05/09 00:49:17;;;;;;;5.93;3.75;;;;;;;;;;1484661;40;20296;-58
2021/05/09 00:50:19;;;;;;;5.72;3.40;;;;;;;;;;1484614;40;20064;-58
2021/05/09 00:51:21;;;;;;;5.80;3.45;;;;;;;;;;1484726;40;20049;-56
2021/05/09 00:52:23;;;;;;;6.70;3.40;;;;;;;;;;1484852;40;20113;-58
2021/05/09 00:53:26;;;;;;;5.97;3.67;;;;;;;;;;1484918;40;20033;-59
2021/05/09 00:54:29;;;;;;;5.72;3.33;;;;;;;;;;1484858;40;20028;-58
2021/05/09 00:55:31;;;;;;;5.88;3.28;;;;;;;;;;1484727;40;20033;-60
2021/05/09 00:56:33;;;;;;;7.13;3.60;;;;;;;;;;1484952;40;20044;-58
2021/05/09 00:57:36;;;;;;;4.72;3.50;;;;;;;;;;1484827;40;20036;-58
2021/05/09 00:58:38;;;;;;;4.47;3.28;;;;;;;;;;1484765;40;20029;-58
2021/05/09 00:59:42;;;;;;;5.18;3.50;;;;;;;;;;1484663;40;20133;-58
2021/05/09 01:00:45;;;;;;;6.60;3.65;;;;;;;;;;1484701;40;20037;-58
2021/05/09 01:01:48;;;;;;;4.85;3.25;;;;;;;;;;1484828;40;20036;-58
2021/05/09 01:02:50;;;;;;;5.82;3.60;;;;;;;;;;1484724;40;20300;-58
2021/05/09 01:03:53;;;;;;;6.75;3.58;;;;;;;;;;1484664;40;20060;-58
2021/05/09 01:04:55;;;;;;;6.35;3.42;;;;;;;;;;1484644;40;20040;-58
2021/05/09 01:05:59;;;;;;;7.30;3.55;;;;;;;;;;1484120;40;20414;-58
2021/05/09 01:07:01;;;;;;;5.13;3.00;;;;;;;;;;1484192;40;20037;-58
2021/05/09 01:08:03;;;;;;;6.10;3.75;;;;;;;;;;1484802;40;20044;-58
2021/05/09 01:09:04;;;;;;;5.72;3.30;;;;;;;;;;1484627;40;20027;-58
2021/05/09 01:10:08;;;;;;;5.70;3.40;;;;;;;;;;1484768;40;20037;-59
2021/05/09 01:11:09;;;;;;;5.70;3.78;;;;;;;;;;1484618;40;20296;-58
2021/05/09 01:12:11;;;;;;;4.82;3.33;;;;;;;;;;1484641;40;20033;-59
2021/05/09 01:13:12;;;;;;;5.50;3.40;;;;;;;;;;1484768;40;20045;-58
2021/05/09 01:14:13;;;;;;;4.68;3.35;;;;;;;;;;1484665;40;20072;-58
2021/05/09 01:15:14;;;;;;;4.32;2.97;;;;;;;;;;1484652;40;20064;-58
2021/05/09 01:16:16;;;;;;;5.35;3.13;;;;;;;;;;1484612;40;20106;-59
2021/05/09 01:17:18;;;;;;;6.70;3.25;;;;;;;;;;1484748;40;20028;-58
2021/05/09 01:18:20;;;;;;;5.05;3.28;;;;;;;;;;1484739;40;20029;-58
2021/05/09 01:19:21;;;;;;;5.75;2.80;;;;;;;;;;1484633;40;20030;-58
2021/05/09 01:20:34;;;;;;;4.90;3.20;;;;;;;;;;1483974;40;20485;-58
2021/05/09 01:21:34;;;;;;;5.85;3.58;;;;;;;;;;1484314;40;20029;-58
2021/05/09 01:22:38;;;;;;;8.00;3.38;;;;;;;;;;1484808;40;20044;-58
2021/05/09 01:23:39;;;;;;;4.85;3.40;;;;;;;;;;1484848;40;20035;-58
2021/05/09 01:24:41;;;;;;;5.53;3.67;;;;;;;;;;1484767;40;20032;-58
2021/05/09 01:25:42;;;;;;;8.13;3.35;;;;;;;;;;1484633;40;20025;-58
2021/05/09 01:26:43;;;;;;;4.70;3.30;;;;;;;;;;1484803;40;20438;-58
2021/05/09 01:27:44;;;;;;;4.22;2.85;;;;;;;;;;1484599;40;20032;-58
2021/05/09 01:28:46;;;;;;;6.32;3.55;;;;;;;;;;1484598;40;20399;-58
2021/05/09 01:29:48;;;;;;;5.63;3.05;;;;;;;;;;1484596;40;20388;-58
2021/05/09 01:30:50;;;;;;;5.45;3.25;;;;;;;;;;1484157;40;20048;-58
2021/05/09 01:31:51;;;;;;;5.25;3.47;;;;;;;;;;1484572;40;20040;-58
2021/05/09 01:32:53;;;;;;;5.60;3.53;;;;;;;;;;1484745;40;20116;-58
2021/05/09 01:33:54;;;;;;;5.30;3.10;;;;;;;;;;1484779;40;20031;-58
2021/05/09 01:34:55;;;;;;;5.90;3.28;;;;;;;;;;1484618;40;20311;-58
2021/05/09 01:35:58;;;;;;;4.65;2.90;;;;;;;;;;1484597;40;20300;-58
2021/05/09 01:36:59;;;;;;;5.28;3.17;;;;;;;;;;1484549;40;20036;-58
2021/05/09 01:38:00;;;;;;;4.70;3.28;;;;;;;;;;1484687;40;20032;-58
2021/05/09 01:39:02;;;;;;;4.45;2.92;;;;;;;;;;1484637;40;20072;-58
2021/05/09 01:40:03;;;;;;;4.55;3.15;;;;;;;;;;1484729;40;20028;-60
2021/05/09 01:41:05;;;;;;;6.07;3.80;;;;;;;;;;1484774;40;20029;-58
2021/05/09 01:42:06;;;;;;;4.18;3.00;;;;;;;;;;1484636;40;20037;-58
2021/05/09 01:43:07;;;;;;;5.18;3.00;;;;;;;;;;1484749;40;20028;-58
2021/05/09 01:44:08;;;;;;;4.50;3.00;;;;;;;;;;1484621;40;20033;-57
2021/05/09 01:45:11;;;;;;;4.13;2.80;;;;;;;;;;1484622;40;20033;-59
2021/05/09 01:46:12;;;;;;;6.38;3.22;;;;;;;;;;1484736;40;20033;-58
2021/05/09 01:47:13;;;;;;;6.28;3.00;;;;;;;;;;1484555;40;20321;-59
2021/05/09 01:48:14;;;;;;;3.88;2.92;;;;;;;;;;1484544;40;20029;-59
2021/05/09 01:49:15;;;;;;;6.18;3.03;;;;;;;;;;1484564;40;20055;-58
2021/05/09 01:50:18;;;;;;;5.32;2.90;;;;;;;;;;1484737;40;20033;-58
2021/05/09 01:51:20;;;;;;;5.10;2.97;;;;;;;;;;1484667;40;20047;-58
2021/05/09 01:52:22;;;;;;;4.55;3.10;;;;;;;;;;1484543;40;20401;-59
2021/05/09 01:53:23;;;;;;;6.03;3.10;;;;;;;;;;1484535;40;20496;-58
2021/05/09 01:54:24;;;;;;;3.75;2.60;;;;;;;;;;1484501;40;20411;-57
2021/05/09 01:55:25;;;;;;;4.68;2.75;;;;;;;;;;1484758;40;20021;-58
2021/05/09 01:56:26;;;;;;;5.63;2.60;;;;;;;;;;1484572;40;20380;-59
2021/05/09 01:57:27;;;;;;;4.40;2.78;;;;;;;;;;1484688;40;20028;-58
2021/05/09 01:58:29;;;;;;;7.05;2.90;;;;;;;;;;1484439;40;20041;-60
2021/05/09 01:59:29;;;;;;;6.15;2.90;;;;;;;;;;1484670;40;20037;-59
2021/05/09 02:00:31;;;;;;;4.20;2.80;;;;;;;;;;1484592;40;20387;-59
2021/05/09 02:01:31;;;;;;;4.82;3.00;;;;;;;;;;1484489;40;20037;-58
2021/05/09 02:02:33;;;;;;;3.85;2.70;;;;;;;;;;1484497;40;20029;-60
2021/05/09 02:03:33;;;;;;;6.57;3.00;;;;;;;;;;1484680;40;20040;-60
2021/05/09 02:04:35;;;;;;;6.75;3.47;;;;;;;;;;1484511;40;20384;-60
2021/05/09 02:05:36;;;;;;;4.20;2.70;;;;;;;;;;1484668;40;20028;-60
2021/05/09 02:06:39;;;;;;;4.63;2.88;;;;;;;;;;1484482;40;20063;-61
2021/05/09 02:07:39;;;;;;;6.07;2.92;;;;;;;;;;1484542;40;20040;-61
2021/05/09 02:08:41;;;;;;;5.88;3.17;;;;;;;;;;1484563;40;20041;-60
2021/05/09 02:09:42;;;;;;;3.97;3.08;;;;;;;;;;1484671;40;20029;-60
2021/05/09 02:10:43;;;;;;;4.70;3.00;;;;;;;;;;1484584;40;20065;-60
2021/05/09 02:11:44;;;;;;;3.50;2.47;;;;;;;;;;1484706;40;20039;-60
2021/05/09 02:12:45;;;;;;;4.45;2.78;;;;;;;;;;1484487;40;20029;-60
2021/05/09 02:13:46;;;;;;;3.90;2.53;;;;;;;;;;1484705;40;20036;-60
2021/05/09 02:14:47;;;;;;;5.15;2.90;;;;;;;;;;1484658;40;20029;-60
2021/05/09 02:15:48;;;;;;;6.93;2.80;;;;;;;;;;1484486;40;20025;-60
2021/05/09 02:16:49;;;;;;;4.88;2.90;;;;;;;;;;1484442;40;20037;-60
2021/05/09 02:17:50;;;;;;;5.40;2.72;;;;;;;;;;1484399;40;20041;-61
2021/05/09 02:18:51;;;;;;;3.75;2.55;;;;;;;;;;1484691;40;20029;-60
2021/05/09 02:19:53;;;;;;;4.22;2.53;;;;;;;;;;1484550;40;20374;-60
2021/05/09 02:20:54;;;;;;;4.55;2.78;;;;;;;;;;1484552;40;20139;-60
2021/05/09 02:21:56;;;;;;;3.22;2.50;;;;;;;;;;1484467;40;20097;-60
2021/05/09 02:22:57;;;;;;;4.18;2.60;;;;;;;;;;1484426;40;20406;-60
2021/05/09 02:23:58;;;;;;;5.45;2.42;;;;;;;;;;1484466;40;20044;-60
2021/05/09 02:24:59;;;;;;;4.85;2.67;;;;;;;;;;1484560;40;20304;-60
2021/05/09 02:26:00;;;;;;;4.43;2.10;;;;;;;;;;1484456;40;20029;-60
2021/05/09 02:27:01;;;;;;;4.22;2.55;;;;;;;;;;1484442;40;20109;-60
2021/05/09 02:28:03;;;;;;;4.00;2.42;;;;;;;;;;1484538;40;20032;-60
2021/05/09 02:29:04;;;;;;;4.90;2.50;;;;;;;;;;1484526;40;20032;-60
2021/05/09 02:30:07;;;;;;;4.10;2.83;;;;;;;;;;1484485;40;20035;-60
2021/05/09 02:31:08;;;;;;;3.88;2.60;;;;;;;;;;1484697;40;20029;-60
2021/05/09 02:32:10;;;;;;;4.32;2.55;;;;;;;;;;1484030;40;20038;-60
2021/05/09 02:33:11;;;;;;;4.45;2.35;;;;;;;;;;1484224;40;20032;-60
2021/05/09 02:34:12;;;;;;;3.95;2.40;;;;;;;;;;1484557;40;20028;-60
2021/05/09 02:35:13;;;;;;;3.17;2.30;;;;;;;;;;1484672;40;20037;-60
2021/05/09 02:36:14;;;;;;;5.10;2.40;;;;;;;;;;1484513;40;20070;-60
2021/05/09 02:37:16;;;;;;;3.95;2.42;;;;;;;;;;1484545;40;20104;-60
2021/05/09 02:38:18;;;;;;;5.05;2.88;;;;;;;;;;1484696;40;20029;-60
2021/05/09 02:39:18;;;;;;;3.28;2.47;;;;;;;;;;1484702;40;20024;-61
2021/05/09 02:40:20;;;;;;;4.43;2.28;;;;;;;;;;1484453;40;20153;-61
2021/05/09 02:41:21;;;;;;;4.78;2.33;;;;;;;;;;1484398;40;20033;-60
2021/05/09 02:42:22;;;;;;;3.60;2.45;;;;;;;;;;1484043;40;20106;-60
2021/05/09 02:43:23;;;;;;;3.15;2.05;;;;;;;;;;1484396;40;20113;-60
2021/05/09 02:44:24;;;;;;;3.85;2.20;;;;;;;;;;1484360;40;20396;-61
2021/05/09 02:45:25;;;;;;;4.45;2.45;;;;;;;;;;1484397;40;20402;-60
2021/05/09 02:46:27;;;;;;;3.00;2.22;;;;;;;;;;1484420;40;20040;-60
2021/05/09 02:47:37;;;;;;;6.88;2.17;;;;;;;;;;1484628;40;20028;-60
2021/05/09 02:48:38;;;;;;;4.03;2.20;;;;;;;;;;1484365;40;20373;-60
2021/05/09 02:49:39;;;;;;;3.42;2.13;;;;;;;;;;1484373;40;20029;-60
2021/05/09 02:50:40;;;;;;;3.15;1.90;;;;;;;;;;1484417;40;20044;-60
2021/05/09 02:51:41;;;;;;;4.72;2.38;;;;;;;;;;1484555;40;20032;-60
2021/05/09 02:52:43;;;;;;;3.42;2.30;;;;;;;;;;1484467;40;20284;-60
2021/05/09 02:53:44;;;;;;;4.65;2.35;;;;;;;;;;1484343;40;20097;-61
2021/05/09 02:54:45;;;;;;;4.15;2.47;;;;;;;;;;1484497;40;20029;-63
2021/05/09 02:55:47;;;;;;;3.90;2.15;;;;;;;;;;1483938;40;20040;-62
2021/05/09 02:56:47;;;;;;;5.40;2.65;;;;;;;;;;1484094;40;20106;-63
2021/05/09 02:57:49;;;;;;;3.42;2.00;;;;;;;;;;1483872;40;20321;-61
2021/05/09 02:58:49;;;;;;;3.65;2.30;;;;;;;;;;1483846;40;20025;-61
2021/05/09 02:59:51;;;;;;;4.13;2.17;;;;;;;;;;1484318;40;20040;-60
2021/05/09 03:00:52;;;;;;;3.47;2.25;;;;;;;;;;1484294;40;20033;-60
2021/05/09 03:01:53;;;;;;;3.67;2.20;;;;;;;;;;1484529;40;20404;-61
2021/05/09 03:02:54;;;;;;;3.80;2.17;;;;;;;;;;1484361;40;20066;-61
2021/05/09 03:03:55;;;;;;;4.00;2.17;;;;;;;;;;1484286;40;20404;-61
2021/05/09 03:04:56;;;;;;;5.82;2.05;;;;;;;;;;1484493;40;20104;-62
2021/05/09 03:05:57;;;;;;;3.20;2.05;;;;;;;;;;1484507;40;20101;-61
2021/05/09 03:06:58;;;;;;;3.92;2.28;;;;;;;;;;1484509;40;20037;-61
2021/05/09 03:08:00;;;;;;;3.78;2.08;;;;;;;;;;1484423;40;20269;-61
2021/05/09 03:09:02;;;;;;;4.55;2.20;;;;;;;;;;1484571;40;20029;-61
2021/05/09 03:10:04;;;;;;;3.40;2.00;;;;;;;;;;1484287;40;20083;-60
2021/05/09 03:11:05;;;;;;;4.45;2.25;;;;;;;;;;1484314;40;20392;-60
2021/05/09 03:12:07;;;;;;;5.53;2.40;;;;;;;;;;1484492;40;20032;-60
2021/05/09 03:13:08;;;;;;;3.72;2.30;;;;;;;;;;1484457;40;20021;-61
2021/05/09 03:14:09;;;;;;;3.47;1.80;;;;;;;;;;1484477;40;20036;-61
2021/05/09 03:15:11;;;;;;;4.53;2.45;;;;;;;;;;1484263;40;20114;-60
2021/05/09 03:16:12;;;;;;;4.38;2.05;;;;;;;;;;1484242;40;20029;-60
2021/05/09 03:17:13;;;;;;;4.22;2.13;;;;;;;;;;1484267;40;20110;-60
2021/05/09 03:18:14;;;;;;;3.50;2.10;;;;;;;;;;1484315;40;20106;-60
2021/05/09 03:19:15;;;;;;;3.00;2.08;;;;;;;;;;1484443;40;20036;-61
2021/05/09 03:20:17;;;;;;;4.18;1.90;;;;;;;;;;1484418;40;20036;-62
2021/05/09 03:21:20;;;;;;;3.35;2.00;;;;;;;;;;1484266;40;20029;-61
2021/05/09 03:22:22;;;;;;;3.25;2.22;;;;;;;;;;1484256;40;20369;-60
2021/05/09 03:23:24;;;;;;;4.10;2.10;;;;;;;;;;1484445;40;20029;-60
2021/05/09 03:24:25;;;;;;;3.45;1.95;;;;;;;;;;1484513;40;20032;-60
2021/05/09 03:25:26;;;;;;;2.95;1.80;;;;;;;;;;1484264;40;20039;-60
2021/05/09 03:26:27;;;;;;;4.07;2.38;;;;;;;;;;1484286;40;20039;-60
2021/05/09 03:27:28;;;;;;;3.35;1.90;;;;;;;;;;1484460;40;20036;-60
2021/05/09 03:28:30;;;;;;;4.25;2.28;;;;;;;;;;1484315;40;20402;-60
2021/05/09 03:29:30;;;;;;;4.10;2.10;;;;;;;;;;1483867;40;20032;-60
2021/05/09 03:30:32;;;;;;;2.90;2.42;;;;;;;;;;1483738;40;20036;-62
2021/05/09 03:31:34;;;;;;;2.75;2.10;;;;;;;;;;1484289;40;20032;-61
2021/05/09 03:32:35;;;;;;;3.45;2.20;;;;;;;;;;1484234;40;20091;-62
2021/05/09 03:33:36;;;;;;;3.70;1.95;;;;;;;;;;1484313;40;20037;-61
2021/05/09 03:34:37;;;;;;;2.88;2.00;;;;;;;;;;1484238;40;20037;-60
2021/05/09 03:35:38;;;;;;;3.08;1.90;;;;;;;;;;1484278;40;20477;-61
2021/05/09 03:36:39;;;;;;;2.83;2.15;;;;;;;;;;1484461;40;20045;-60
2021/05/09 03:37:41;;;;;;;3.90;2.00;;;;;;;;;;1484451;40;20164;-61
2021/05/09 03:38:44;;;;;;;3.53;1.92;;;;;;;;;;1484209;40;20059;-61
2021/05/09 03:39:47;;;;;;;3.70;2.10;;;;;;;;;;1484199;40;20020;-60
2021/05/09 03:40:49;;;;;;;2.47;1.85;;;;;;;;;;1484145;40;20040;-60
2021/05/09 03:41:51;;;;;;;3.63;1.98;;;;;;;;;;1484361;40;20032;-60
2021/05/09 03:42:54;;;;;;;4.00;1.88;;;;;;;;;;1484350;40;20106;-60
2021/05/09 03:43:55;;;;;;;3.10;2.10;;;;;;;;;;1484183;40;20060;-60
2021/05/09 03:44:56;;;;;;;5.25;2.25;;;;;;;;;;1484218;40;20059;-61
2021/05/09 03:45:57;;;;;;;2.80;1.77;;;;;;;;;;1484357;40;20032;-60
2021/05/09 03:46:58;;;;;;;3.03;1.80;;;;;;;;;;1484249;40;20285;-60
2021/05/09 03:47:59;;;;;;;2.63;1.70;;;;;;;;;;1484204;40;20025;-60
2021/05/09 03:49:01;;;;;;;2.75;1.92;;;;;;;;;;1484396;40;20033;-60
2021/05/09 03:50:03;;;;;;;3.33;2.00;;;;;;;;;;1484124;40;20360;-60
2021/05/09 03:51:05;;;;;;;4.00;2.10;;;;;;;;;;1484179;40;20388;-61
2021/05/09 03:52:05;;;;;;;4.45;2.17;;;;;;;;;;1484182;40;20032;-61
2021/05/09 03:53:07;;;;;;;3.33;1.83;;;;;;;;;;1484352;40;20114;-60
2021/05/09 03:54:09;;;;;;;3.20;1.80;;;;;;;;;;1484639;40;20032;-60
2021/05/09 03:55:10;;;;;;;3.13;2.05;;;;;;;;;;1484880;40;20036;-61
2021/05/09 03:56:11;;;;;;;3.10;1.85;;;;;;;;;;1485027;40;20059;-60
2021/05/09 03:57:13;;;;;;;6.28;1.92;;;;;;;;;;1484808;40;20029;-60
2021/05/09 03:58:13;;;;;;;3.33;1.80;;;;;;;;;;1484758;40;20029;-60
2021/05/09 03:59:15;;;;;;;4.65;2.10;;;;;;;;;;1484959;40;20048;-60
2021/05/09 04:00:17;;;;;;;3.22;1.77;;;;;;;;;;1484817;40;20348;-60
2021/05/09 04:01:18;;;;;;;4.15;2.03;;;;;;;;;;1484862;40;20035;-61
2021/05/09 04:02:20;;;;;;;2.88;1.77;;;;;;;;;;1484844;40;20047;-60
2021/05/09 04:03:23;;;;;;;5.03;1.95;;;;;;;;;;1484759;40;20482;-60
2021/05/09 04:04:24;;;;;;;3.08;1.90;;;;;;;;;;1485003;40;20033;-60
2021/05/09 04:05:25;;;;;;;3.72;1.80;;;;;;;;;;1484802;40;20080;-60
2021/05/09 04:06:26;;;;;;;2.70;1.55;;;;;;;;;;1484973;40;20029;-60
2021/05/09 04:07:27;;;;;;;3.78;1.90;;;;;;;;;;1484799;40;20308;-61
2021/05/09 04:08:28;;;;;;;4.00;1.90;;;;;;;;;;1484776;40;20029;-61
2021/05/09 04:09:30;;;;;;;3.10;1.90;;;;;;;;;;1484986;40;20036;-60
2021/05/09 04:10:31;;;;;;;2.63;1.70;;;;;;;;;;1484950;40;20041;-61
2021/05/09 04:11:33;;;;;;;3.67;2.10;;;;;;;;;;1484899;40;20029;-60
2021/05/09 04:12:34;;;;;;;3.03;1.83;;;;;;;;;;1484822;40;20043;-60
2021/05/09 04:13:43;;;;;;;4.35;2.05;;;;;;;;;;1484798;40;20048;-60
2021/05/09 04:14:44;;;;;;;4.20;1.65;;;;;;;;;;1484841;40;20084;-60
2021/05/09 04:15:45;;;;;;;3.90;1.90;;;;;;;;;;1484947;40;20033;-60
2021/05/09 04:16:46;;;;;;;2.75;1.58;;;;;;;;;;1484770;40;20033;-60
2021/05/09 04:17:47;;;;;;;3.38;1.70;;;;;;;;;;1484779;40;20029;-62
2021/05/09 04:18:48;;;;;;;4.22;1.65;;;;;;;;;;1484906;40;20025;-60
2021/05/09 04:19:49;;;;;;;3.20;1.75;;;;;;;;;;1484899;40;20297;-60
2021/05/09 04:20:50;;;;;;;3.28;1.67;;;;;;;;;;1484878;40;20045;-60
2021/05/09 04:21:52;;;;;;;2.85;1.90;;;;;;;;;;1484219;40;20332;-61
2021/05/09 04:22:52;;;;;;;2.72;1.73;;;;;;;;;;1484368;40;20032;-61
2021/05/09 04:23:54;;;;;;;3.47;2.10;;;;;;;;;;1484325;40;20036;-60
2021/05/09 04:24:55;;;;;;;3.17;2.25;;;;;;;;;;1484367;40;20029;-61
2021/05/09 04:25:57;;;;;;;2.92;1.88;;;;;;;;;;1484852;40;20025;-61
2021/05/09 04:26:58;;;;;;;3.42;1.80;;;;;;;;;;1485006;40;20028;-60
2021/05/09 04:27:59;;;;;;;3.47;1.85;;;;;;;;;;1484826;40;20329;-61
2021/05/09 04:29:00;;;;;;;3.30;1.90;;;;;;;;;;1484946;40;20036;-60
2021/05/09 04:30:01;;;;;;;2.95;1.75;;;;;;;;;;1484696;40;20070;-61
2021/05/09 04:31:02;;;;;;;2.60;1.88;;;;;;;;;;1484918;40;20032;-61
2021/05/09 04:32:04;;;;;;;2.92;1.52;;;;;;;;;;1484811;40;20277;-61
2021/05/09 04:33:06;;;;;;;2.88;1.80;;;;;;;;;;1484792;40;20033;-60
2021/05/09 04:34:08;;;;;;;2.58;1.52;;;;;;;;;;1484945;40;20032;-60
2021/05/09 04:35:09;;;;;;;2.70;1.63;;;;;;;;;;1484706;40;20035;-61
2021/05/09 04:36:10;;;;;;;3.22;1.85;;;;;;;;;;1484683;40;20055;-60
2021/05/09 04:37:11;;;;;;;4.15;1.70;;;;;;;;;;1484938;40;20032;-60
2021/05/09 04:38:13;;;;;;;3.35;1.60;;;;;;;;;;1484937;40;20025;-60
2021/05/09 04:39:14;;;;;;;2.95;1.73;;;;;;;;;;1484833;40;20051;-60
2021/05/09 04:40:16;;;;;;;2.38;1.65;;;;;;;;;;1484835;40;20049;-60
2021/05/09 04:41:17;;;;;;;3.03;1.65;;;;;;;;;;1484742;40;20273;-61
2021/05/09 04:42:18;;;;;;;8.32;2.08;;;;;;;;;;1484880;40;20036;-60
2021/05/09 04:43:19;;;;;;;2.67;1.58;;;;;;;;;;1484821;40;20288;-61
2021/05/09 04:44:21;;;;;;;3.88;1.50;;;;;;;;;;1484692;40;20146;-61
2021/05/09 04:45:22;;;;;;;3.38;1.50;;;;;;;;;;1484872;40;20114;-61
2021/05/09 04:46:23;;;;;;;2.45;1.50;;;;;;;;;;1485011;40;20028;-61
2021/05/09 04:47:24;;;;;;;3.15;1.60;;;;;;;;;;1484692;40;20388;-61
2021/05/09 04:48:26;;;;;;;2.60;1.50;;;;;;;;;;1484894;40;20033;-60
2021/05/09 04:49:27;;;;;;;2.92;1.60;;;;;;;;;;1484868;40;20033;-60
2021/05/09 04:50:28;;;;;;;2.50;1.63;;;;;;;;;;1484767;40;20400;-61
2021/05/09 04:51:29;;;;;;;2.20;1.40;;;;;;;;;;1484685;40;20338;-61
2021/05/09 04:52:30;;;;;;;2.75;1.60;;;;;;;;;;1484892;40;20048;-61
2021/05/09 04:53:34;;;;;;;2.70;1.25;;;;;;;;;;1484681;40;20032;-60
2021/05/09 04:54:35;;;;;;;2.40;1.50;;;;;;;;;;1484782;40;20381;-61
2021/05/09 04:55:37;;;;;;;4.70;1.50;;;;;;;;;;1484870;40;20032;-60
2021/05/09 04:56:38;;;;;;;3.15;1.25;;;;;;;;;;1484952;40;20033;-61
2021/05/09 04:57:39;;;;;;;2.72;1.48;;;;;;;;;;1484676;40;20032;-60
2021/05/09 04:58:42;;;;;;;2.92;1.45;;;;;;;;;;1484652;40;20035;-61
2021/05/09 04:59:43;;;;;;;3.03;1.52;;;;;;;;;;1484814;40;20029;-61
2021/05/09 05:00:44;;;;;;;2.47;1.48;;;;;;;;;;1484563;40;20354;-61
2021/05/09 05:01:45;;;;;;;2.97;1.40;;;;;;;;;;1484873;40;20041;-60
2021/05/09 05:02:47;;;;;;;3.47;1.60;;;;;;;;;;1484707;40;20391;-62
2021/05/09 05:03:48;;;;;;;3.63;1.77;;;;;;;;;;1484812;40;20025;-62
2021/05/09 05:04:49;;;;;;;2.17;1.45;;;;;;;;;;1484653;40;20029;-61
2021/05/09 05:05:50;;;;;;;2.83;1.55;;;;;;;;;;1484064;40;20117;-62
2021/05/09 05:06:51;;;;;;;2.78;1.52;;;;;;;;;;1484677;40;20194;-61
2021/05/09 05:07:52;;;;;;;3.22;1.80;;;;;;;;;;1484850;40;20028;-62
2021/05/09 05:08:54;;;;;;;2.53;1.40;;;;;;;;;;1484848;40;20115;-61
2021/05/09 05:09:54;;;;;;;2.15;1.35;;;;;;;;;;1484840;40;20032;-62
2021/05/09 05:10:56;;;;;;;3.10;1.40;;;;;;;;;;1484600;40;20124;-62
2021/05/09 05:11:57;;;;;;;2.80;1.42;;;;;;;;;;1484628;40;20028;-62
2021/05/09 05:12:59;;;;;;;2.40;1.30;;;;;;;;;;1484646;40;20037;-62
2021/05/09 05:13:59;;;;;;;3.08;1.58;;;;;;;;;;1484788;40;20032;-61
2021/05/09 05:15:01;;;;;;;2.80;1.55;;;;;;;;;;1484678;40;20028;-62
2021/05/09 05:16:05;;;;;;;2.75;1.40;;;;;;;;;;1484663;40;20039;-62
2021/05/09 05:17:06;;;;;;;3.35;1.60;;;;;;;;;;1484627;40;20295;-62
2021/05/09 05:18:07;;;;;;;2.35;1.25;;;;;;;;;;1484587;40;20021;-61
2021/05/09 05:19:08;;;;;;;3.22;1.30;;;;;;;;;;1484654;40;20494;-62
2021/05/09 05:20:10;;;;;;;3.17;1.30;;;;;;;;;;1484840;40;20044;-61
2021/05/09 05:22:14;;;;;;;2.47;1.45;;;;;;;;;;1487421;40;20036;-64
2021/05/09 05:23:15;;;;;;;2.20;1.50;;;;;;;;;;1488990;39;20032;-64
2021/05/09 05:24:17;;;;;;;2.17;1.33;;;;;;;;;;1488788;40;20410;-64
2021/05/09 05:25:18;;;;;;;2.20;1.40;;;;;;;;;;1489023;39;20032;-64
2021/05/09 05:26:20;;;;;;;3.47;1.83;;;;;;;;;;1488878;40;20375;-65
2021/05/09 05:27:21;;;;;;;3.30;1.60;;;;;;;;;;1488939;39;20031;-64
2021/05/09 05:28:22;;;;;;;2.47;1.42;;;;;;;;;;1488828;39;20029;-64
2021/05/09 05:29:23;;;;;;;3.70;1.30;;;;;;;;;;1488807;39;20024;-64
2021/05/09 05:30:25;;;;;;;2.35;1.35;;;;;;;;;;1488817;39;20040;-64
2021/05/09 05:31:26;;;;;;;2.70;1.60;;;;;;;;;;1488695;39;20039;-64
2021/05/09 05:32:27;;;;;;;2.50;1.40;;;;;;;;;;1488975;39;20101;-64
2021/05/09 05:33:31;;;;;;;3.03;1.50;;;;;;;;;;1488820;39;20402;-64
2021/05/09 05:34:32;;;;;;;2.75;1.30;;;;;;;;;;1488797;39;20036;-64
2021/05/09 05:35:33;;;;;;;4.00;1.33;;;;;;;;;;1488794;39;20287;-64
2021/05/09 05:36:35;;;;;;;3.28;1.48;;;;;;;;;;1489055;39;20028;-64
2021/05/09 05:37:35;;;;;;;2.92;1.55;;;;;;;;;;1488985;39;20035;-64
2021/05/09 05:38:37;;;;;;;2.75;1.55;;;;;;;;;;1488940;39;20294;-64
2021/05/09 05:39:38;;;;;;;6.25;1.42;;;;;;;;;;1488781;39;20024;-65
2021/05/09 05:40:39;;;;;;;3.08;1.40;;;;;;;;;;1489011;39;20055;-64
2021/05/09 05:41:41;;;;;;;2.78;1.40;;;;;;;;;;1488781;39;20292;-64
2021/05/09 05:42:42;;;;;;;1.95;1.27;;;;;;;;;;1488901;39;20028;-65
2021/05/09 05:43:43;;;;;;;2.25;1.38;;;;;;;;;;1488753;39;20476;-64
2021/05/09 05:44:44;;;;;;;3.78;1.58;;;;;;;;;;1488964;39;20048;-64
2021/05/09 05:45:45;;;;;;;3.20;1.67;;;;;;;;;;1488985;39;20035;-65
2021/05/09 05:46:46;;;;;;;3.83;1.73;;;;;;;;;;1488925;39;20028;-64
2021/05/09 05:47:49;;;;;;;2.55;1.42;;;;;;;;;;1488765;39;20024;-64
2021/05/09 05:48:50;;;;;;;2.63;1.45;;;;;;;;;;1488829;39;20121;-64
2021/05/09 05:49:51;;;;;;;2.88;1.80;;;;;;;;;;1488968;39;20024;-64
2021/05/09 05:50:53;;;;;;;3.58;1.90;;;;;;;;;;1488927;39;20028;-64
2021/05/09 05:51:54;;;;;;;3.38;1.55;;;;;;;;;;1488851;39;20040;-64
2021/05/09 05:52:55;;;;;;;3.33;1.73;;;;;;;;;;1488697;39;20302;-64
2021/05/09 05:53:57;;;;;;;3.95;1.58;;;;;;;;;;1488742;39;20284;-64
2021/05/09 05:54:58;;;;;;;2.63;1.42;;;;;;;;;;1488959;39;20043;-64
2021/05/09 05:55:59;;;;;;;1.77;1.13;;;;;;;;;;1488925;39;20028;-64
2021/05/09 05:57:01;;;;;;;2.95;1.50;;;;;;;;;;1489032;39;20336;-64
2021/05/09 05:58:02;;;;;;;3.08;1.40;;;;;;;;;;1488803;39;20128;-65
2021/05/09 05:59:04;;;;;;;2.00;1.30;;;;;;;;;;1488716;39;20041;-65
2021/05/09 06:00:06;;;;;;;2.47;1.35;;;;;;;;;;1488803;39;20033;-65
2021/05/09 06:01:08;;;;;;;2.28;1.00;;;;;;;;;;1488833;39;20032;-64
2021/05/09 06:02:09;;;;;;;2.85;1.30;;;;;;;;;;1488797;39;20291;-64
2021/05/09 06:03:11;;;;;;;2.72;1.40;;;;;;;;;;1488889;39;20028;-65
2021/05/09 06:04:11;;;;;;;2.95;1.42;;;;;;;;;;1488775;39;20357;-64
2021/05/09 06:05:13;;;;;;;2.30;1.35;;;;;;;;;;1488939;39;20040;-64
2021/05/09 06:06:14;;;;;;;2.35;1.23;;;;;;;;;;1488817;39;20029;-65
2021/05/09 06:07:16;;;;;;;2.13;1.40;;;;;;;;;;1488868;39;20028;-64
2021/05/09 06:08:17;;;;;;;3.80;1.25;;;;;;;;;;1488286;39;20046;-65
2021/05/09 06:09:18;;;;;;;3.35;1.35;;;;;;;;;;1488251;40;20032;-64
2021/05/09 06:10:19;;;;;;;2.60;1.10;;;;;;;;;;1488857;39;20038;-65